Time;durP1;ratioP1;P1;durP2;ratioP2;P2;SDS_P1;SDS_P2;PMS_P1;PMS_P2;Temp;Humidity;BMP_temperature;BMP_pressure;BME280_temperature;BME280_humidity;BME280_pressure;Samples;Min_cycle;Max_cycle;Signal;HPM_P1;HPM_P2
2024/02/12 00:01:45;;;;;;;33.53;14.40;;;;;;;-4.24;64.37;99637.25;5053724;28;20104;-68
2024/02/12 00:04:14;;;;;;;24.85;11.07;;;;;;;-3.86;63.45;99686.94;5052968;28;20040;-68
2024/02/12 00:06:40;;;;;;;28.70;13.20;;;;;;;-3.93;63.54;99675.78;5032775;28;20033;-66
2024/02/12 00:09:06;;;;;;;30.00;13.77;;;;;;;-3.91;63.65;99680.06;5048680;28;20033;-66
2024/02/12 00:11:31;;;;;;;33.60;14.75;;;;;;;-3.98;63.95;99668.03;5048897;28;20041;-67
2024/02/12 00:13:57;;;;;;;30.27;14.15;;;;;;;-3.88;63.88;99668.69;5049117;28;20064;-67
2024/02/12 00:16:25;;;;;;;28.55;14.32;;;;;;;-3.81;63.75;99667.63;5049382;28;20059;-66
2024/02/12 00:18:51;;;;;;;27.50;13.23;;;;;;;-3.78;63.66;99674.56;5049542;28;20108;-69
2024/02/12 00:21:18;;;;;;;29.65;14.52;;;;;;;-3.95;63.96;99660.13;5047798;27;20429;-67
2024/02/12 00:23:46;;;;;;;32.83;14.48;;;;;;;-3.86;64.45;99673.88;5048947;28;20036;-67
2024/02/12 00:26:13;;;;;;;32.92;14.65;;;;;;;-3.93;64.35;99653.09;5049509;28;20032;-67
2024/02/12 00:28:40;;;;;;;31.15;14.55;;;;;;;-4.15;64.51;99620.50;5048381;28;20089;-67
2024/02/12 00:31:05;;;;;;;29.20;13.98;;;;;;;-4.00;63.97;99614.91;5049438;28;20059;-66
2024/02/12 00:33:31;;;;;;;31.83;14.02;;;;;;;-4.13;64.40;99597.78;5049554;28;20424;-66
2024/02/12 00:35:58;;;;;;;37.63;15.10;;;;;;;-3.83;64.66;99652.88;5048890;28;20581;-64
2024/02/12 00:38:24;;;;;;;28.70;13.98;;;;;;;-3.75;64.11;99661.41;5049351;28;20040;-67
2024/02/12 00:40:50;;;;;;;36.80;15.23;;;;;;;-3.74;64.17;99660.50;5048234;28;20037;-66
2024/02/12 00:43:16;;;;;;;32.92;14.77;;;;;;;-3.77;64.63;99640.50;5047983;28;20044;-66
2024/02/12 00:45:42;;;;;;;30.42;13.73;;;;;;;-3.61;63.58;99655.81;5049166;28;20029;-66
2024/02/12 00:48:08;;;;;;;35.20;15.05;;;;;;;-3.72;64.47;99645.63;5031609;28;20036;-65
2024/02/12 00:50:35;;;;;;;28.63;14.30;;;;;;;-3.86;64.90;99640.72;5048666;28;20060;-66
2024/02/12 00:53:01;;;;;;;31.08;15.05;;;;;;;-3.80;64.82;99639.72;5048150;28;20137;-66
2024/02/12 00:55:27;;;;;;;28.15;14.70;;;;;;;-3.76;64.68;99630.91;5049722;28;20369;-66
2024/02/12 00:58:03;;;;;;;33.75;14.35;;;;;;;-3.68;64.17;99638.56;5048053;28;20043;-66
2024/02/12 01:00:29;;;;;;;30.67;14.50;;;;;;;-3.58;64.75;99645.28;5048860;28;20120;-65
2024/02/12 01:03:14;;;;;;;;;;;;;;;-3.26;63.45;99629.63;5049029;28;20044;-65
2024/02/12 01:05:41;;;;;;;28.27;13.15;;;;;;;-3.55;63.73;99624.25;5047935;28;19916;-64
2024/02/12 01:08:07;;;;;;;28.60;14.73;;;;;;;-3.65;64.45;99623.63;5048715;28;20043;-66
2024/02/12 01:10:33;;;;;;;33.05;15.02;;;;;;;-3.66;64.29;99607.97;5047995;28;20039;-65
2024/02/12 01:12:58;;;;;;;31.73;15.20;;;;;;;-3.63;64.26;99627.06;5050833;28;20033;-64
2024/02/12 01:15:24;;;;;;;30.98;14.50;;;;;;;-3.67;64.84;99625.44;5053599;28;20078;-67
2024/02/12 01:18:09;;;;;;;;;;;;;;;-3.21;63.20;99623.38;5048335;28;20422;-68
2024/02/12 01:20:35;;;;;;;33.58;14.20;;;;;;;-3.41;63.97;99631.75;5047951;28;20347;-67
2024/02/12 01:23:01;;;;;;;32.55;13.80;;;;;;;-3.42;64.52;99629.19;5048931;27;20033;-66
2024/02/12 01:25:27;;;;;;;29.58;13.85;;;;;;;-3.57;64.65;99620.81;5051278;28;20025;-68
2024/02/12 01:27:53;;;;;;;35.47;15.38;;;;;;;-3.52;64.66;99612.84;5051462;28;20041;-67
2024/02/12 01:30:19;;;;;;;37.00;15.23;;;;;;;-3.51;64.99;99617.19;5052296;28;20067;-68
2024/02/12 01:32:44;;;;;;;30.65;13.98;;;;;;;-3.48;65.04;99615.38;5052518;28;20069;-68
2024/02/12 01:35:11;;;;;;;32.80;15.75;;;;;;;-3.38;64.83;99630.81;5051396;28;20048;-69
2024/02/12 01:37:38;;;;;;;32.22;14.50;;;;;;;-3.43;65.07;99617.84;5051804;28;20070;-68
2024/02/12 01:40:04;;;;;;;35.90;14.48;;;;;;;-3.36;64.93;99623.78;5052225;28;20036;-65
2024/02/12 01:42:32;;;;;;;33.05;14.63;;;;;;;-3.29;64.54;99619.25;5051421;28;20109;-65
2024/02/12 01:45:11;;;;;;;38.20;15.85;;;;;;;-3.32;65.11;99615.81;5052256;28;20455;-67
2024/02/12 01:47:42;;;;;;;30.92;15.23;;;;;;;-3.41;64.97;99621.28;5051113;28;20029;-64
2024/02/12 01:50:13;;;;;;;33.80;15.18;;;;;;;-3.44;64.84;99603.03;5051902;28;20476;-67
2024/02/12 01:52:49;;;;;;;33.45;14.52;;;;;;;-3.32;65.09;99609.69;5052170;28;20453;-66
2024/02/12 01:55:16;;;;;;;36.88;15.30;;;;;;;-3.41;65.45;99612.56;5050885;28;20044;-66
2024/02/12 01:57:47;;;;;;;36.13;15.45;;;;;;;-3.43;65.45;99606.53;5050656;28;20445;-66
2024/02/12 02:00:17;;;;;;;35.75;16.23;;;;;;;-3.36;65.21;99595.84;5051199;28;20345;-66
2024/02/12 02:02:44;;;;;;;28.00;11.38;;;;;;;-3.25;64.76;99602.53;5050837;28;20029;-66
2024/02/12 02:05:13;;;;;;;38.63;15.95;;;;;;;-3.36;64.98;99598.47;5050637;28;20032;-66
2024/02/12 02:07:39;;;;;;;34.10;15.38;;;;;;;-3.35;64.89;99592.34;5050504;28;20441;-67
2024/02/12 02:10:09;;;;;;;34.40;16.17;;;;;;;-3.40;65.31;99588.97;5033749;28;20025;-66
2024/02/12 02:12:38;;;;;;;28.13;13.25;;;;;;;-3.36;65.42;99588.00;5051228;28;20048;-66
2024/02/12 02:15:14;;;;;;;33.17;15.10;;;;;;;-3.42;65.31;99577.66;5050112;28;21944;-66
2024/02/12 02:17:41;;;;;;;35.00;16.05;;;;;;;-3.35;65.03;99581.88;5051151;28;20337;-67
2024/02/12 02:20:12;;;;;;;31.13;14.93;;;;;;;-3.38;64.90;99563.59;5049945;28;20033;-67
2024/02/12 02:22:39;;;;;;;33.50;15.85;;;;;;;-3.63;65.15;99543.31;5051056;27;20037;-66
2024/02/12 02:25:05;;;;;;;36.38;16.20;;;;;;;-3.70;65.20;99523.47;5050740;28;20061;-67
2024/02/12 02:27:34;;;;;;;36.45;16.00;;;;;;;-3.49;65.55;99566.53;5051510;28;20036;-68
2024/02/12 02:30:07;;;;;;;39.88;16.98;;;;;;;-3.53;65.58;99577.97;5050238;28;20047;-66
2024/02/12 02:32:35;;;;;;;35.00;16.30;;;;;;;-3.51;65.90;99562.22;5051387;28;20036;-65
2024/02/12 02:35:04;;;;;;;36.40;15.85;;;;;;;-3.71;65.38;99526.97;5050123;28;20101;-66
2024/02/12 02:37:35;;;;;;;33.30;15.25;;;;;;;-3.53;65.54;99566.66;5034377;28;20040;-63
2024/02/12 02:40:03;;;;;;;29.30;12.95;;;;;;;-3.43;65.61;99578.56;5050934;28;20456;-67
2024/02/12 02:42:31;;;;;;;35.55;16.75;;;;;;;-3.44;65.20;99563.78;5050921;28;20136;-66
2024/02/12 02:44:57;;;;;;;38.45;15.95;;;;;;;-3.55;66.25;99565.84;5050892;28;20427;-66
2024/02/12 02:47:22;;;;;;;36.15;17.20;;;;;;;-3.59;65.95;99549.34;5050933;28;20946;-67
2024/02/12 02:49:49;;;;;;;33.17;15.32;;;;;;;-3.64;66.23;99541.59;5050500;28;20349;-66
2024/02/12 02:52:14;;;;;;;37.35;16.83;;;;;;;-3.53;66.31;99559.63;5051061;28;20041;-66
2024/02/12 02:54:43;;;;;;;39.00;16.52;;;;;;;-3.56;66.49;99546.63;5049818;28;20417;-67
2024/02/12 02:57:11;;;;;;;40.05;16.35;;;;;;;-3.73;66.47;99514.88;5050760;28;20025;-65
2024/02/12 02:59:38;;;;;;;33.30;15.75;;;;;;;-3.52;66.97;99539.56;5049685;28;20037;-65
2024/02/12 03:02:08;;;;;;;40.05;16.40;;;;;;;-3.47;66.42;99533.31;5049863;28;20096;-67
2024/02/12 03:04:35;;;;;;;37.97;16.02;;;;;;;-3.42;66.50;99546.25;5050859;28;20028;-66
2024/02/12 03:07:02;;;;;;;35.22;14.75;;;;;;;-3.27;65.71;99546.75;5033493;28;20074;-66
2024/02/12 03:09:28;;;;;;;36.00;16.15;;;;;;;-3.34;66.30;99538.19;5050284;28;20048;-68
2024/02/12 03:11:54;;;;;;;41.72;17.38;;;;;;;-3.41;66.07;99524.41;5050222;28;20033;-67
2024/02/12 03:14:21;;;;;;;37.47;17.38;;;;;;;-3.43;66.30;99538.47;5048996;28;20380;-66
2024/02/12 03:16:54;;;;;;;36.35;17.02;;;;;;;-3.34;66.20;99533.84;5050657;28;20044;-68
2024/02/12 03:19:19;;;;;;;39.08;16.63;;;;;;;-3.46;67.29;99528.94;5050433;28;20033;-66
2024/02/12 03:21:49;;;;;;;35.40;16.08;;;;;;;-3.40;67.02;99526.13;5050054;28;20040;-67
2024/02/12 03:24:14;;;;;;;35.90;16.42;;;;;;;-3.65;67.22;99487.56;5049784;27;20029;-67
2024/02/12 03:26:40;;;;;;;42.83;17.52;;;;;;;-3.38;66.59;99521.72;5050584;28;20040;-65
2024/02/12 03:29:06;;;;;;;41.10;16.73;;;;;;;-3.34;66.78;99523.38;5051088;28;20436;-68
2024/02/12 03:31:31;;;;;;;37.30;16.33;;;;;;;-3.35;66.48;99516.41;5049977;28;20409;-66
2024/02/12 03:33:57;;;;;;;37.80;16.73;;;;;;;-3.34;66.63;99512.91;5050013;28;20052;-66
2024/02/12 03:36:23;;;;;;;32.75;13.77;;;;;;;-3.19;66.24;99521.19;5050519;28;20105;-68
2024/02/12 03:38:49;;;;;;;39.50;16.95;;;;;;;-3.35;66.76;99499.84;5048961;28;20393;-68
2024/02/12 03:41:18;;;;;;;36.28;17.45;;;;;;;-3.30;66.89;99504.94;5049232;28;20040;-67
2024/02/12 03:43:44;;;;;;;42.38;17.30;;;;;;;-3.32;66.56;99500.63;5048888;28;20105;-68
2024/02/12 03:46:19;;;;;;;40.05;17.17;;;;;;;-3.45;67.28;99467.81;5050273;28;20436;-66
2024/02/12 03:59:53;;;;;;;35.53;15.48;;;;;;;-3.46;67.01;99497.53;5049630;28;20452;-67
2024/02/12 04:02:23;;;;;;;33.25;15.35;;;;;;;-3.34;67.21;99498.94;5048782;28;20509;-70
2024/02/12 04:04:51;;;;;;;29.80;13.77;;;;;;;-3.29;66.58;99493.56;5049544;28;20360;-69
2024/02/12 04:07:22;;;;;;;39.15;15.18;;;;;;;-3.34;67.00;99491.94;5048413;28;20025;-67
2024/02/12 04:09:47;;;;;;;31.30;14.45;;;;;;;-3.39;67.01;99472.03;5048872;28;20029;-68
2024/02/12 04:12:13;;;;;;;33.67;13.65;;;;;;;-3.35;66.72;99478.88;5049037;28;20017;-69
2024/02/12 04:14:42;;;;;;;31.75;13.60;;;;;;;-3.35;66.92;99485.00;5049917;28;20033;-68
2024/02/12 04:17:14;;;;;;;32.10;15.82;;;;;;;-3.41;67.99;99484.31;5049363;28;20024;-68
2024/02/12 04:19:41;;;;;;;32.28;14.43;;;;;;;-3.36;67.35;99478.06;5048406;28;20051;-63
2024/02/12 04:22:09;;;;;;;34.88;15.15;;;;;;;-3.66;67.35;99428.28;5049922;28;20512;-65
2024/02/12 04:24:40;;;;;;;35.65;15.80;;;;;;;-3.39;67.09;99469.41;5049733;28;20029;-65
2024/02/12 04:27:07;;;;;;;36.75;15.23;;;;;;;-3.39;67.51;99470.25;5048264;27;20419;-65
2024/02/12 04:29:35;;;;;;;28.52;13.98;;;;;;;-3.24;66.94;99475.97;5049074;28;20104;-65
2024/02/12 04:32:03;;;;;;;36.88;15.38;;;;;;;-3.57;67.31;99421.09;5048885;28;20040;-66
2024/02/12 04:34:28;;;;;;;34.33;15.27;;;;;;;-3.34;67.24;99465.78;5048172;28;20029;-70
2024/02/12 04:36:57;;;;;;;34.95;14.93;;;;;;;-3.32;67.39;99474.44;5047836;28;20051;-64
2024/02/12 04:39:23;;;;;;;34.63;15.48;;;;;;;-3.39;67.42;99457.16;5049247;28;20370;-71
2024/02/12 04:41:51;;;;;;;29.08;14.30;;;;;;;-3.26;67.46;99467.28;5031302;28;20035;-66
2024/02/12 04:44:17;;;;;;;30.23;14.88;;;;;;;-3.59;67.43;99408.03;5049167;28;20033;-66
2024/02/12 04:46:43;;;;;;;30.30;14.63;;;;;;;-3.25;67.36;99458.53;5049537;28;20175;-65
2024/02/12 04:49:09;;;;;;;29.60;14.02;;;;;;;-3.19;67.39;99474.94;5049013;28;20059;-68
2024/02/12 04:51:40;;;;;;;29.98;15.45;;;;;;;-3.06;66.62;99469.31;5048645;28;20060;-65
2024/02/12 04:54:06;;;;;;;34.28;14.80;;;;;;;-3.02;66.89;99476.16;5049724;28;20041;-68
2024/02/12 04:56:32;;;;;;;36.85;15.95;;;;;;;-3.21;66.75;99444.44;5047910;28;20107;-66
2024/02/12 04:58:58;;;;;;;29.88;14.25;;;;;;;-3.19;67.28;99461.84;5021283;28;20038;-72
2024/02/12 05:01:26;;;;;;;37.10;16.60;;;;;;;-3.18;66.95;99471.41;5032986;28;20465;-76
2024/02/12 05:03:53;;;;;;;33.85;15.50;;;;;;;-3.27;67.69;99452.50;5033225;28;20357;-75
2024/02/12 05:06:19;;;;;;;35.25;15.52;;;;;;;-3.21;67.82;99460.16;5033964;28;20034;-77
2024/02/12 05:08:50;;;;;;;30.58;15.40;;;;;;;-3.21;67.72;99460.16;5050139;27;20032;-72
2024/02/12 05:11:16;;;;;;;33.50;15.30;;;;;;;-3.30;67.82;99432.47;5046907;27;20036;-68
2024/02/12 05:13:45;;;;;;;31.30;15.10;;;;;;;-3.08;67.60;99450.16;5042621;28;20056;-63
2024/02/12 05:16:13;;;;;;;35.55;15.38;;;;;;;-3.08;67.99;99452.78;5040809;28;20072;-66
2024/02/12 05:24:08;;;;;;;32.15;14.38;;;;;;;-2.86;66.42;99446.88;5052685;28;20085;-68
2024/02/12 05:26:34;;;;;;;37.03;16.08;;;;;;;-2.96;66.70;99454.16;5051610;27;20036;-67
2024/02/12 05:29:00;;;;;;;33.92;16.40;;;;;;;-3.12;67.52;99443.31;5051474;28;20029;-69
2024/02/12 05:31:25;;;;;;;34.20;15.57;;;;;;;-3.14;67.82;99455.59;5048430;27;20415;-67
2024/02/12 05:33:51;;;;;;;28.30;13.45;;;;;;;-3.30;67.34;99402.84;5041798;28;20021;-73
2024/02/12 05:36:20;;;;;;;30.80;15.20;;;;;;;-3.09;67.84;99458.94;5042899;27;20025;-70
2024/02/12 05:38:50;;;;;;;29.83;14.13;;;;;;;-3.00;67.17;99447.31;5040053;28;20033;-67
2024/02/12 05:41:16;;;;;;;35.10;15.55;;;;;;;-3.04;67.51;99450.03;5041809;28;20112;-66
2024/02/12 05:43:42;;;;;;;32.38;14.68;;;;;;;-3.17;67.96;99446.94;5042989;28;20100;-68
2024/02/12 05:46:08;;;;;;;30.35;15.20;;;;;;;-3.26;68.29;99428.03;5043347;28;20020;-67
2024/02/12 05:48:37;;;;;;;31.75;15.48;;;;;;;-3.17;68.29;99440.81;5051452;28;20582;-67
2024/02/12 05:51:08;;;;;;;32.55;15.50;;;;;;;-3.12;68.60;99432.84;5082833;27;20077;-68
2024/02/12 05:53:35;;;;;;;24.98;13.05;;;;;;;-2.99;67.68;99442.03;5044603;28;20523;-67
2024/02/12 05:56:01;;;;;;;30.73;14.95;;;;;;;-3.02;67.45;99442.13;5051418;28;20036;-66
2024/02/12 05:58:26;;;;;;;32.78;14.77;;;;;;;-2.98;67.67;99440.25;5051458;28;20028;-67
2024/02/12 06:00:54;;;;;;;32.05;15.02;;;;;;;-2.99;68.04;99442.03;5051002;28;20037;-67
2024/02/12 06:03:19;;;;;;;29.17;14.43;;;;;;;-2.96;67.90;99459.41;5050452;28;20440;-67
2024/02/12 06:05:45;;;;;;;30.63;14.40;;;;;;;-3.01;68.20;99435.13;5051642;28;20112;-63
2024/02/12 06:08:12;;;;;;;28.90;14.60;;;;;;;-2.79;67.72;99448.41;5050627;28;20033;-67
2024/02/12 06:10:37;;;;;;;31.10;15.30;;;;;;;-2.78;67.42;99444.88;5049756;28;20033;-66
2024/02/12 06:13:03;;;;;;;28.85;14.90;;;;;;;-2.88;67.69;99426.84;5051031;28;20040;-68
2024/02/12 06:15:31;;;;;;;29.00;14.63;;;;;;;-2.83;67.52;99447.66;5051260;28;20028;-68
2024/02/12 06:18:00;;;;;;;32.92;14.82;;;;;;;-2.80;67.76;99431.84;5051171;28;20459;-67
2024/02/12 06:20:25;;;;;;;27.05;13.18;;;;;;;-2.69;66.67;99431.50;5051243;28;20029;-67
2024/02/12 06:22:51;;;;;;;29.95;13.27;;;;;;;-2.64;66.83;99426.94;5051044;28;20508;-66
2024/02/12 06:25:20;;;;;;;30.42;15.27;;;;;;;-2.76;67.54;99430.81;5051905;28;20025;-61
2024/02/12 06:27:46;;;;;;;27.17;14.32;;;;;;;-2.75;67.35;99437.78;5050787;28;20039;-66
2024/02/12 06:30:13;;;;;;;29.23;15.02;;;;;;;-2.71;67.46;99427.19;5050930;27;20484;-68
2024/02/12 06:32:40;;;;;;;29.52;14.93;;;;;;;-2.69;68.28;99422.75;5050006;28;20101;-65
2024/02/12 06:35:07;;;;;;;30.80;13.88;;;;;;;-2.74;68.22;99418.53;5051091;28;20044;-70
2024/02/12 06:37:46;;;;;;;26.20;14.00;;;;;;;-2.66;67.93;99425.28;5051249;28;20043;-67
2024/02/12 06:40:13;;;;;;;31.15;14.55;;;;;;;-2.68;68.15;99427.09;5050278;28;20037;-67
2024/02/12 06:42:39;;;;;;;27.55;13.57;;;;;;;-2.70;67.56;99410.56;5051195;28;20049;-67
2024/02/12 06:45:05;;;;;;;26.13;13.73;;;;;;;-2.57;67.37;99430.22;5050716;28;20115;-67
2024/02/12 06:47:33;;;;;;;26.23;13.73;;;;;;;-2.66;67.34;99414.78;5049730;28;20033;-67
2024/02/12 06:49:59;;;;;;;32.10;14.02;;;;;;;-2.67;67.80;99418.31;5050090;28;20053;-67
2024/02/12 06:52:24;;;;;;;27.33;13.60;;;;;;;-2.62;67.61;99416.44;5050424;28;20372;-68
2024/02/12 06:54:50;;;;;;;25.98;14.82;;;;;;;-2.58;68.21;99410.16;5050509;28;20032;-68
2024/02/12 06:57:15;;;;;;;27.67;14.32;;;;;;;-2.39;67.19;99405.16;5050202;28;20032;-69
2024/02/12 06:59:42;;;;;;;26.20;12.68;;;;;;;-2.35;67.07;99405.91;5051224;28;20032;-68
2024/02/12 07:02:09;;;;;;;29.25;13.45;;;;;;;-2.38;67.27;99398.16;5050425;28;20025;-66
2024/02/12 07:04:47;;;;;;;28.40;13.10;;;;;;;-2.37;66.79;99392.00;5047935;28;20517;-78
2024/02/12 07:07:14;;;;;;;34.67;14.77;;;;;;;-2.32;66.61;99393.53;5042347;27;20087;-64
2024/02/12 07:09:39;;;;;;;26.73;13.48;;;;;;;-2.33;66.65;99397.06;5039987;28;20424;-65
2024/02/12 07:12:06;;;;;;;22.35;12.35;;;;;;;-2.31;66.35;99403.13;5039036;28;20075;-71
2024/02/12 07:14:32;;;;;;;27.35;12.65;;;;;;;-2.31;66.59;99394.41;5039196;28;20029;-63
2024/02/12 07:16:58;;;;;;;22.02;10.57;;;;;;;-2.30;66.68;99390.88;5047765;28;20353;-63
2024/02/12 07:19:23;;;;;;;22.33;11.55;;;;;;;-2.19;65.86;99380.84;5055456;27;20120;-63
2024/02/12 07:21:50;;;;;;;27.45;12.57;;;;;;;-2.36;66.85;99365.72;5049723;28;20033;-62
2024/02/12 07:24:15;;;;;;;24.65;13.52;;;;;;;-2.25;67.18;99370.59;5050231;28;20056;-63
2024/02/12 07:26:42;;;;;;;27.73;13.57;;;;;;;-2.19;67.05;99372.97;5055668;27;20459;-62
2024/02/12 07:29:08;;;;;;;25.50;12.30;;;;;;;-2.11;66.87;99392.88;5049910;28;20073;-62
2024/02/12 07:31:33;;;;;;;23.40;10.93;;;;;;;-2.04;66.03;99379.47;5055407;27;20045;-61
2024/02/12 07:34:02;;;;;;;16.23;9.13;;;;;;;-1.94;65.45;99376.50;5048771;28;20448;-63
2024/02/12 07:36:28;;;;;;;21.88;10.13;;;;;;;-1.94;65.85;99377.34;5046150;28;20722;-63
2024/02/12 07:38:53;;;;;;;19.35;10.15;;;;;;;-1.98;65.63;99381.00;5033712;28;20032;-64
2024/02/12 07:41:19;;;;;;;20.58;11.32;;;;;;;-2.12;65.69;99357.06;5039401;28;20072;-64
2024/02/12 07:43:44;;;;;;;22.38;10.80;;;;;;;-2.12;66.38;99363.13;5041011;28;20032;-63
2024/02/12 07:46:11;;;;;;;24.25;11.90;;;;;;;-2.00;66.23;99367.09;5039302;28;20124;-63
2024/02/12 07:48:39;;;;;;;22.77;11.57;;;;;;;-1.90;65.59;99394.72;5040717;28;20161;-61
2024/02/12 07:51:05;;;;;;;21.15;11.25;;;;;;;-2.08;66.20;99362.09;5045204;27;20049;-58
2024/02/12 07:53:31;;;;;;;25.27;12.02;;;;;;;-1.97;66.37;99371.38;5045589;28;20089;-63
2024/02/12 07:55:57;;;;;;;26.00;13.20;;;;;;;-2.01;66.06;99357.50;5038803;28;20017;-57
2024/02/12 07:58:24;;;;;;;25.45;12.15;;;;;;;-1.91;66.74;99377.25;5038635;28;20128;-60
2024/02/12 08:00:50;;;;;;;25.70;13.05;;;;;;;-1.83;66.46;99370.88;5038087;28;20436;-60
2024/02/12 08:03:19;;;;;;;24.65;12.95;;;;;;;-1.75;66.37;99369.69;5047338;27;20092;-61
2024/02/12 08:05:46;;;;;;;26.65;11.35;;;;;;;-1.65;65.82;99366.69;5047519;28;20065;-61
2024/02/12 08:08:13;;;;;;;26.23;12.55;;;;;;;-1.65;65.62;99362.31;5047109;28;20555;-64
2024/02/12 08:10:39;;;;;;;27.33;13.02;;;;;;;-1.55;65.52;99367.22;5048326;28;20154;-61
2024/02/12 08:13:05;;;;;;;23.90;12.38;;;;;;;-1.46;64.85;99370.34;5049170;28;20052;-61
2024/02/12 08:15:31;;;;;;;25.05;12.85;;;;;;;-1.64;65.27;99356.16;5048021;28;20032;-62
2024/02/12 08:18:19;;;;;;;24.98;12.38;;;;;;;-1.54;66.23;99358.41;5028292;28;20037;-63
2024/02/12 08:20:45;;;;;;;24.20;12.10;;;;;;;-1.42;64.92;99373.72;5064045;28;20041;-61
2024/02/12 08:23:10;;;;;;;24.33;12.25;;;;;;;-1.37;64.90;99374.38;5053566;27;20089;-63
2024/02/12 08:25:38;;;;;;;24.08;12.07;;;;;;;-1.46;64.97;99351.09;5049400;28;20097;-62
2024/02/12 08:28:04;;;;;;;27.10;13.00;;;;;;;-1.48;65.47;99374.78;5049379;28;20029;-62
2024/02/12 08:30:31;;;;;;;28.45;13.85;;;;;;;-1.42;64.83;99375.47;5071786;27;20071;-60
2024/02/12 08:32:59;;;;;;;24.67;12.38;;;;;;;-1.41;64.68;99375.41;5119489;27;20627;-63
2024/02/12 08:35:25;;;;;;;27.55;13.18;;;;;;;-1.51;65.44;99363.53;5048856;28;20052;-62
2024/02/12 08:38:03;;;;;;;25.52;12.65;;;;;;;-1.48;65.74;99366.03;5040790;28;20105;-62
2024/02/12 08:40:30;;;;;;;23.45;12.45;;;;;;;-1.36;65.77;99373.47;5034398;28;20029;-62
2024/02/12 08:42:58;;;;;;;25.30;12.23;;;;;;;-1.19;64.81;99388.56;5040065;27;20064;-62
2024/02/12 08:45:25;;;;;;;23.42;12.82;;;;;;;-1.26;64.92;99373.97;5043343;28;20060;-63
2024/02/12 08:48:02;;;;;;;20.90;11.07;;;;;;;-1.15;64.19;99368.28;5036771;28;20434;-62
2024/02/12 08:50:28;;;;;;;22.50;12.63;;;;;;;-1.21;64.98;99371.13;5038768;28;20068;-64
2024/02/12 08:52:53;;;;;;;23.98;13.68;;;;;;;-1.17;65.79;99367.50;5038221;28;20456;-65
2024/02/12 08:55:19;;;;;;;24.20;12.18;;;;;;;-1.06;64.65;99357.41;5032242;28;20458;-64
2024/02/12 08:57:45;;;;;;;24.55;12.18;;;;;;;-1.01;64.58;99360.69;5028333;28;20360;-62
2024/02/12 09:00:13;;;;;;;19.35;10.68;;;;;;;-1.00;64.33;99358.94;5039914;27;20037;-63
2024/02/12 09:02:58;;;;;;;22.35;11.75;;;;;;;-1.01;65.27;99347.56;5029529;28;20048;-63
2024/02/12 09:05:24;;;;;;;21.10;10.02;;;;;;;-0.95;65.10;99366.63;5044531;28;20066;-63
2024/02/12 09:07:51;;;;;;;26.90;10.82;;;;;;;-0.93;65.55;99357.75;5044830;28;20980;-62
2024/02/12 09:10:18;;;;;;;20.98;11.90;;;;;;;-0.87;65.34;99354.88;5045777;28;20344;-61
2024/02/12 09:12:44;;;;;;;23.80;11.38;;;;;;;-0.80;65.09;99344.13;5047967;27;20326;-63
2024/02/12 09:15:10;;;;;;;21.35;11.30;;;;;;;-0.67;64.66;99347.09;5039501;28;20040;-62
2024/02/12 09:17:37;;;;;;;22.10;11.43;;;;;;;-0.74;64.43;99342.06;5039385;28;20369;-62
2024/02/12 09:20:04;;;;;;;18.25;10.82;;;;;;;-0.73;64.81;99322.75;5040510;28;20048;-62
2024/02/12 09:22:33;;;;;;;22.00;11.63;;;;;;;-0.68;65.11;99337.50;5040767;28;20044;-61
2024/02/12 09:25:05;;;;;;;20.00;11.15;;;;;;;-0.51;64.21;99329.72;5035534;28;20078;-63
2024/02/12 09:27:32;;;;;;;20.10;10.77;;;;;;;-0.56;64.51;99325.63;5034338;28;20113;-62
2024/02/12 09:29:59;;;;;;;20.25;10.75;;;;;;;-0.57;64.37;99318.66;5040640;28;20117;-61
2024/02/12 09:32:25;;;;;;;21.52;11.40;;;;;;;-0.72;64.21;99284.19;5037977;27;20033;-64
2024/02/12 09:34:50;;;;;;;18.17;9.60;;;;;;;-0.55;63.72;99312.38;5037284;28;20038;-63
2024/02/12 09:37:18;;;;;;;20.48;10.90;;;;;;;-0.67;64.45;99311.13;5032620;28;20029;-67
2024/02/12 09:39:45;;;;;;;17.92;9.18;;;;;;;-0.69;63.91;99309.50;5044960;28;20492;-67
2024/02/12 09:42:16;;;;;;;17.17;9.07;;;;;;;-0.70;64.24;99307.78;5045764;28;20441;-62
2024/02/12 09:44:46;;;;;;;19.52;9.57;;;;;;;-0.76;64.39;99299.22;5046304;27;20025;-61
2024/02/12 09:47:16;;;;;;;16.58;9.80;;;;;;;-0.75;64.93;99294.84;5033153;28;20079;-61
2024/02/12 09:49:43;;;;;;;15.30;8.95;;;;;;;-0.74;64.60;99305.28;5031267;28;20034;-62
2024/02/12 09:52:13;;;;;;;15.05;9.30;;;;;;;-0.70;65.22;99298.13;5013197;28;20086;-61
2024/02/12 09:54:39;;;;;;;16.58;9.50;;;;;;;-0.73;65.41;99291.22;5047525;28;20029;-62
2024/02/12 09:57:05;;;;;;;16.77;9.43;;;;;;;-0.60;65.25;99293.31;5050171;28;20029;-66
2024/02/12 09:59:32;;;;;;;15.23;9.23;;;;;;;-0.46;64.73;99285.69;5049584;28;20089;-69
2024/02/12 10:01:58;;;;;;;19.38;9.60;;;;;;;-0.46;64.99;99290.97;5050628;28;20089;-67
2024/02/12 10:04:44;;;;;;;;;;;;;;;0.06;63.83;99276.38;5050701;28;20143;-68
2024/02/12 10:07:39;;;;;;;17.90;9.30;;;;;;;-0.04;63.28;99267.19;5030189;28;19913;-69
2024/02/12 10:10:24;;;;;;;17.23;9.57;;;;;;;-0.13;63.99;99280.78;5029875;28;20454;-67
2024/02/12 10:13:10;;;;;;;16.08;8.45;;;;;;;-0.05;63.43;99268.09;5035879;27;20029;-65
2024/02/12 10:15:55;;;;;;;18.63;9.07;;;;;;;-0.11;63.56;99271.03;5134745;27;20147;-67
2024/02/12 10:18:41;;;;;;;;;;;;;;;0.10;62.71;99264.78;5098155;27;20043;-66
2024/02/12 10:21:27;;;;;;;14.75;8.68;;;;;;;-0.36;63.40;99232.69;5050126;28;20367;-68
2024/02/12 10:24:12;;;;;;;21.38;8.95;;;;;;;-0.22;63.57;99271.50;5036159;28;20030;-66
2024/02/12 10:26:58;;;;;;;16.98;8.48;;;;;;;-0.30;63.78;99264.81;5030358;28;20041;-67
2024/02/12 10:29:44;;;;;;;17.17;9.07;;;;;;;-0.18;64.23;99266.06;5049690;28;20610;-72
2024/02/12 10:32:29;;;;;;;13.57;7.93;;;;;;;0.05;63.60;99264.16;5051045;28;20647;-68
2024/02/12 10:35:15;;;;;;;18.88;9.43;;;;;;;0.16;63.35;99260.16;5050264;27;20041;-69
2024/02/12 10:38:01;;;;;;;18.75;9.88;;;;;;;0.10;63.59;99251.63;5046459;28;20043;-67
2024/02/12 10:40:53;;;;;;;;;;;;;;;0.57;62.78;99239.72;5050823;28;20048;-69
2024/02/12 10:43:40;;;;;;;21.33;9.38;;;;;;;0.00;63.30;99189.81;5066839;27;19940;-64
2024/02/12 10:46:27;;;;;;;16.70;8.60;;;;;;;0.17;63.73;99246.94;5048004;28;20047;-62
2024/02/12 10:49:14;;;;;;;11.93;7.63;;;;;;;0.26;63.36;99235.09;5104675;27;20039;-65
2024/02/12 10:52:01;;;;;;;12.70;7.88;;;;;;;0.29;62.92;99261.28;5119881;27;20059;-64
2024/02/12 10:54:47;;;;;;;14.00;7.38;;;;;;;0.21;63.51;99247.63;5048735;27;20045;-63
2024/02/12 10:57:13;;;;;;;11.02;6.22;;;;;;;0.23;62.86;99241.38;5035649;28;20021;-63
2024/02/12 10:59:39;;;;;;;12.73;7.10;;;;;;;0.11;63.97;99239.28;5050446;28;20441;-63
2024/02/12 11:02:13;;;;;;;13.40;7.47;;;;;;;0.16;64.10;99244.34;5050355;28;20029;-65
2024/02/12 11:04:40;;;;;;;10.82;7.15;;;;;;;0.10;63.64;99237.59;5050155;28;20025;-65
2024/02/12 11:07:24;;;;;;;12.45;7.38;;;;;;;0.28;64.26;99239.34;5053847;27;20048;-65
2024/02/12 11:09:57;;;;;;;12.25;7.22;;;;;;;0.36;64.03;99236.38;5047175;28;20313;-63
2024/02/12 11:12:26;;;;;;;10.80;5.95;;;;;;;0.43;64.74;99243.03;5050184;28;20116;-63
2024/02/12 11:14:52;;;;;;;9.43;6.00;;;;;;;0.50;62.61;99226.94;5050064;28;20448;-65
2024/02/12 11:17:26;;;;;;;14.02;6.80;;;;;;;0.48;63.94;99234.91;5070245;27;20043;-62
2024/02/12 11:19:52;;;;;;;9.75;6.10;;;;;;;0.43;63.17;99232.50;5135138;27;20057;-63
2024/02/12 11:22:28;;;;;;;8.68;5.63;;;;;;;0.46;63.25;99238.53;5133299;27;20427;-63
2024/02/12 11:25:03;;;;;;;10.93;6.20;;;;;;;0.32;62.77;99221.63;5068487;27;20360;-64
2024/02/12 11:27:58;;;;;;;9.20;6.00;;;;;;;0.43;63.09;99223.75;5049428;28;20382;-64
2024/02/12 11:30:24;;;;;;;10.02;6.03;;;;;;;0.34;62.78;99224.19;5050522;28;20059;-64
2024/02/12 11:32:50;;;;;;;14.25;6.30;;;;;;;0.30;62.36;99215.59;5049099;28;20429;-63
2024/02/12 11:35:18;;;;;;;13.82;7.53;;;;;;;0.14;63.59;99218.13;5049721;27;20044;-63
2024/02/12 11:37:48;;;;;;;11.43;6.40;;;;;;;0.05;63.82;99213.28;5049771;28;20029;-64
2024/02/12 11:40:18;;;;;;;11.32;6.30;;;;;;;0.11;63.93;99210.34;5032690;28;20037;-63
2024/02/12 11:43:02;;;;;;;11.13;7.15;;;;;;;-0.17;64.21;99172.16;5029829;28;20037;-66
2024/02/12 11:45:28;;;;;;;12.10;7.35;;;;;;;-0.11;64.48;99168.41;5028549;28;20221;-63
2024/02/12 11:48:07;;;;;;;15.00;7.13;;;;;;;0.32;64.73;99223.41;5029976;28;20072;-62